sensor_id;sensor_type;location;lat;lon;timestamp;pressure;altitude;pressure_sealevel;temperature;humidity
56811;BME280;42691;47.234;27.494;2022-10-31T00:03:48;99925.50;;;18.69;100.00
56811;BME280;42691;47.234;27.494;2022-10-31T00:06:15;99920.34;;;18.68;100.00
56811;BME280;42691;47.234;27.494;2022-10-31T00:08:44;99932.81;;;18.66;100.00
56811;BME280;42691;47.234;27.494;2022-10-31T00:11:10;99929.34;;;18.65;100.00
56811;BME280;42691;47.234;27.494;2022-10-31T00:13:35;99927.78;;;18.63;100.00
56811;BME280;42691;47.234;27.494;2022-10-31T00:16:01;99932.28;;;18.61;100.00
56811;BME280;42691;47.234;27.494;2022-10-31T00:18:26;99932.19;;;18.62;100.00
56811;BME280;42691;47.234;27.494;2022-10-31T00:21:02;99930.69;;;18.58;100.00
56811;BME280;42691;47.234;27.494;2022-10-31T00:23:28;99931.66;;;18.57;100.00
56811;BME280;42691;47.234;27.494;2022-10-31T00:25:59;99932.63;;;18.56;100.00
56811;BME280;42691;47.234;27.494;2022-10-31T00:28:24;99922.06;;;18.56;100.00
56811;BME280;42691;47.234;27.494;2022-10-31T00:30:50;99924.72;;;18.56;100.00
56811;BME280;42691;47.234;27.494;2022-10-31T00:33:15;99924.84;;;18.55;100.00
56811;BME280;42691;47.234;27.494;2022-10-31T00:35:41;99920.41;;;18.55;100.00
56811;BME280;42691;47.234;27.494;2022-10-31T00:38:06;99918.72;;;18.54;100.00
56811;BME280;42691;47.234;27.494;2022-10-31T00:40:32;99920.41;;;18.55;100.00
56811;BME280;42691;47.234;27.494;2022-10-31T00:42:57;99914.41;;;18.53;100.00
56811;BME280;42691;47.234;27.494;2022-10-31T00:45:22;99911.78;;;18.53;100.00
56811;BME280;42691;47.234;27.494;2022-10-31T00:47:48;99906.50;;;18.53;100.00
56811;BME280;42691;47.234;27.494;2022-10-31T00:50:13;99913.47;;;18.54;100.00
56811;BME280;42691;47.234;27.494;2022-10-31T00:52:39;99907.22;;;18.55;100.00
56811;BME280;42691;47.234;27.494;2022-10-31T00:55:04;99915.13;;;18.55;100.00
56811;BME280;42691;47.234;27.494;2022-10-31T00:57:30;99920.63;;;18.52;100.00
56811;BME280;42691;47.234;27.494;2022-10-31T00:59:55;99912.25;;;18.47;100.00
56811;BME280;42691;47.234;27.494;2022-10-31T01:02:21;99911.53;;;18.45;100.00
56811;BME280;42691;47.234;27.494;2022-10-31T01:04:46;99910.59;;;18.46;100.00
56811;BME280;42691;47.234;27.494;2022-10-31T01:07:12;99910.59;;;18.46;100.00
56811;BME280;42691;47.234;27.494;2022-10-31T01:09:39;99913.09;;;18.48;100.00
56811;BME280;42691;47.234;27.494;2022-10-31T01:12:04;99908.66;;;18.48;100.00
56811;BME280;42691;47.234;27.494;2022-10-31T01:14:30;99916.56;;;18.48;100.00
56811;BME280;42691;47.234;27.494;2022-10-31T01:16:55;99908.66;;;18.48;100.00
56811;BME280;42691;47.234;27.494;2022-10-31T01:19:21;99904.47;;;18.46;100.00
56811;BME280;42691;47.234;27.494;2022-10-31T01:21:46;99910.81;;;18.43;100.00
56811;BME280;42691;47.234;27.494;2022-10-31T01:24:12;99906.50;;;18.42;100.00
56811;BME280;42691;47.234;27.494;2022-10-31T01:26:37;99898.00;;;18.38;100.00
56811;BME280;42691;47.234;27.494;2022-10-31T01:29:05;99903.03;;;18.41;100.00
56811;BME280;42691;47.234;27.494;2022-10-31T01:31:36;99900.53;;;18.40;100.00
56811;BME280;42691;47.234;27.494;2022-10-31T01:34:02;99882.44;;;18.35;100.00
56811;BME280;42691;47.234;27.494;2022-10-31T01:36:30;99896.34;;;18.37;100.00
56811;BME280;42691;47.234;27.494;2022-10-31T01:38:59;99899.09;;;18.36;100.00
56811;BME280;42691;47.234;27.494;2022-10-31T01:41:27;99897.16;;;18.38;100.00
56811;BME280;42691;47.234;27.494;2022-10-31T01:44:02;99891.19;;;18.36;100.00
56811;BME280;42691;47.234;27.494;2022-10-31T01:46:32;99891.41;;;18.33;100.00
56811;BME280;42691;47.234;27.494;2022-10-31T01:49:00;99902.91;;;18.32;100.00
56811;BME280;42691;47.234;27.494;2022-10-31T01:51:30;99907.47;;;18.30;100.00
56811;BME280;42691;47.234;27.494;2022-10-31T01:54:02;99908.41;;;18.29;100.00
56811;BME280;42691;47.234;27.494;2022-10-31T01:56:29;99906.25;;;18.23;100.00
56811;BME280;42691;47.234;27.494;2022-10-31T01:58:56;99910.56;;;18.24;100.00
56811;BME280;42691;47.234;27.494;2022-10-31T02:01:25;99915.84;;;18.24;100.00
56811;BME280;42691;47.234;27.494;2022-10-31T02:03:51;99916.91;;;18.21;100.00
56811;BME280;42691;47.234;27.494;2022-10-31T02:06:44;99909.09;;;18.20;100.00
56811;BME280;42691;47.234;27.494;2022-10-31T02:09:07;99916.03;;;18.21;100.00
56811;BME280;42691;47.234;27.494;2022-10-31T02:11:34;99899.03;;;18.13;100.00
56811;BME280;42691;47.234;27.494;2022-10-31T02:14:02;99885.84;;;18.02;100.00
56811;BME280;42691;47.234;27.494;2022-10-31T02:16:27;99911.72;;;18.20;100.00
56811;BME280;42691;47.234;27.494;2022-10-31T02:18:53;99912.47;;;18.22;100.00
56811;BME280;42691;47.234;27.494;2022-10-31T02:24:18;99910.69;;;18.22;100.00
56811;BME280;42691;47.234;27.494;2022-10-31T02:27:03;99918.66;;;18.21;100.00
56811;BME280;42691;47.234;27.494;2022-10-31T02:30:06;99926.56;;;18.21;100.00
56811;BME280;42691;47.234;27.494;2022-10-31T02:40:39;99924.38;;;18.03;100.00
56811;BME280;42691;47.234;27.494;2022-10-31T02:48:28;99928.66;;;17.93;100.00
56811;BME280;42691;47.234;27.494;2022-10-31T02:51:01;99922.56;;;17.93;100.00
56811;BME280;42691;47.234;27.494;2022-10-31T02:53:32;99920.16;;;17.90;100.00
56811;BME280;42691;47.234;27.494;2022-10-31T02:56:02;99912.09;;;17.80;100.00
56811;BME280;42691;47.234;27.494;2022-10-31T02:58:31;99921.34;;;17.86;100.00
56811;BME280;42691;47.234;27.494;2022-10-31T03:01:09;99929.13;;;17.87;100.00
56811;BME280;42691;47.234;27.494;2022-10-31T03:03:57;99921.34;;;17.86;100.00
56811;BME280;42691;47.234;27.494;2022-10-31T03:11:49;99920.06;;;17.67;100.00
56811;BME280;42691;47.234;27.494;2022-10-31T03:14:31;99925.00;;;17.59;100.00
56811;BME280;42691;47.234;27.494;2022-10-31T03:17:05;99921.88;;;17.54;100.00
56811;BME280;42691;47.234;27.494;2022-10-31T03:19:43;99930.63;;;17.55;100.00
56811;BME280;42691;47.234;27.494;2022-10-31T03:22:17;99923.19;;;17.48;100.00
56811;BME280;42691;47.234;27.494;2022-10-31T03:24:45;99902.84;;;17.27;100.00
56811;BME280;42691;47.234;27.494;2022-10-31T03:27:15;99922.13;;;17.38;100.00
56811;BME280;42691;47.234;27.494;2022-10-31T03:29:43;99927.00;;;17.32;100.00
56811;BME280;42691;47.234;27.494;2022-10-31T03:32:19;99924.72;;;17.27;100.00
56811;BME280;42691;47.234;27.494;2022-10-31T03:34:47;99936.91;;;17.28;100.00
56811;BME280;42691;47.234;27.494;2022-10-31T03:37:17;99921.91;;;17.17;100.00
56811;BME280;42691;47.234;27.494;2022-10-31T03:39:46;99937.56;;;17.19;100.00
56811;BME280;42691;47.234;27.494;2022-10-31T03:42:16;99942.94;;;17.17;100.00
56811;BME280;42691;47.234;27.494;2022-10-31T03:44:46;99931.81;;;17.14;100.00
56811;BME280;42691;47.234;27.494;2022-10-31T03:47:15;99930.84;;;17.15;100.00
56811;BME280;42691;47.234;27.494;2022-10-31T03:49:41;99926.53;;;17.14;100.00
56811;BME280;42691;47.234;27.494;2022-10-31T03:54:58;99923.47;;;17.20;100.00
56811;BME280;42691;47.234;27.494;2022-10-31T03:57:35;99929.56;;;17.21;100.00
56811;BME280;42691;47.234;27.494;2022-10-31T04:00:07;99932.81;;;17.24;100.00
56811;BME280;42691;47.234;27.494;2022-10-31T04:02:37;99933.78;;;17.23;100.00
56811;BME280;42691;47.234;27.494;2022-10-31T04:05:04;99931.88;;;17.25;100.00
56811;BME280;42691;47.234;27.494;2022-10-31T04:07:34;99926.59;;;17.25;100.00
56811;BME280;42691;47.234;27.494;2022-10-31T04:10:04;99915.69;;;17.18;100.00
56811;BME280;42691;47.234;27.494;2022-10-31T04:12:32;99930.63;;;17.18;100.00
56811;BME280;42691;47.234;27.494;2022-10-31T04:15:02;99935.16;;;17.16;100.00
56811;BME280;42691;47.234;27.494;2022-10-31T04:17:31;99937.78;;;17.16;100.00
56811;BME280;42691;47.234;27.494;2022-10-31T04:20:02;99933.59;;;17.13;100.00
56811;BME280;42691;47.234;27.494;2022-10-31T04:22:28;99929.41;;;17.11;100.00
56811;BME280;42691;47.234;27.494;2022-10-31T04:24:53;99930.41;;;17.08;100.00
56811;BME280;42691;47.234;27.494;2022-10-31T04:27:18;99922.66;;;17.07;100.00
56811;BME280;42691;47.234;27.494;2022-10-31T04:29:44;99936.00;;;17.04;100.00
56811;BME280;42691;47.234;27.494;2022-10-31T04:32:09;99937.19;;;17.00;100.00
56811;BME280;42691;47.234;27.494;2022-10-31T04:34:35;99934.56;;;17.00;100.00
56811;BME280;42691;47.234;27.494;2022-10-31T04:37:00;99928.56;;;16.98;100.00
56811;BME280;42691;47.234;27.494;2022-10-31T04:39:26;99928.06;;;16.93;100.00
56811;BME280;42691;47.234;27.494;2022-10-31T04:41:51;99940.69;;;16.87;100.00
56811;BME280;42691;47.234;27.494;2022-10-31T04:44:17;99946.16;;;16.84;100.00
56811;BME280;42691;47.234;27.494;2022-10-31T04:46:42;99944.56;;;16.82;100.00
56811;BME280;42691;47.234;27.494;2022-10-31T04:49:08;99945.63;;;16.79;100.00
56811;BME280;42691;47.234;27.494;2022-10-31T04:51:33;99933.56;;;16.77;100.00
56811;BME280;42691;47.234;27.494;2022-10-31T04:53:59;99945.84;;;16.76;100.00
56811;BME280;42691;47.234;27.494;2022-10-31T04:56:24;99935.34;;;16.76;100.00
56811;BME280;42691;47.234;27.494;2022-10-31T04:58:49;99950.88;;;16.79;100.00
56811;BME280;42691;47.234;27.494;2022-10-31T05:01:15;99956.97;;;16.80;100.00
56811;BME280;42691;47.234;27.494;2022-10-31T05:03:40;99951.63;;;16.81;100.00
56811;BME280;42691;47.234;27.494;2022-10-31T05:06:06;99956.13;;;16.79;100.00
56811;BME280;42691;47.234;27.494;2022-10-31T05:08:32;99956.75;;;16.83;100.00
56811;BME280;42691;47.234;27.494;2022-10-31T05:11:02;99955.81;;;16.84;100.00
56811;BME280;42691;47.234;27.494;2022-10-31T05:13:27;99964.31;;;16.87;100.00
56811;BME280;42691;47.234;27.494;2022-10-31T05:15:53;99964.31;;;16.87;100.00
56811;BME280;42691;47.234;27.494;2022-10-31T05:18:19;99958.00;;;16.90;100.00
56811;BME280;42691;47.234;27.494;2022-10-31T05:20:44;99965.56;;;16.95;100.00
56811;BME280;42691;47.234;27.494;2022-10-31T05:23:09;99967.25;;;16.96;100.00
56811;BME280;42691;47.234;27.494;2022-10-31T05:25:35;99972.19;;;17.00;100.00
56811;BME280;42691;47.234;27.494;2022-10-31T05:28:00;99975.44;;;17.04;100.00
56811;BME280;42691;47.234;27.494;2022-10-31T05:30:30;99971.47;;;17.11;100.00
56811;BME280;42691;47.234;27.494;2022-10-31T05:32:56;99979.41;;;17.22;100.00
56811;BME280;42691;47.234;27.494;2022-10-31T05:35:27;99977.06;;;17.30;100.00
56811;BME280;42691;47.234;27.494;2022-10-31T05:37:53;99995.88;;;17.37;100.00
56811;BME280;42691;47.234;27.494;2022-10-31T05:40:20;99981.91;;;17.36;100.00
56811;BME280;42691;47.234;27.494;2022-10-31T05:42:46;99980.44;;;17.32;100.00
56811;BME280;42691;47.234;27.494;2022-10-31T05:45:14;99986.31;;;17.36;100.00
56811;BME280;42691;47.234;27.494;2022-10-31T05:47:40;99997.44;;;17.39;100.00
56811;BME280;42691;47.234;27.494;2022-10-31T05:50:07;99997.44;;;17.39;100.00
56811;BME280;42691;47.234;27.494;2022-10-31T05:52:33;99982.94;;;17.34;100.00
56811;BME280;42691;47.234;27.494;2022-10-31T05:54:59;99994.72;;;17.41;100.00
56811;BME280;42691;47.234;27.494;2022-10-31T05:57:24;99963.53;;;17.24;100.00
56811;BME280;42691;47.234;27.494;2022-10-31T05:59:50;100001.31;;;17.46;100.00
56811;BME280;42691;47.234;27.494;2022-10-31T06:02:19;99998.69;;;17.46;100.00
56811;BME280;42691;47.234;27.494;2022-10-31T06:04:44;100004.50;;;17.52;100.00
56811;BME280;42691;47.234;27.494;2022-10-31T06:07:10;100004.78;;;17.60;100.00
56811;BME280;42691;47.234;27.494;2022-10-31T06:09:35;100009.16;;;17.72;100.00
56811;BME280;42691;47.234;27.494;2022-10-31T06:12:01;100013.75;;;17.81;100.00
56811;BME280;42691;47.234;27.494;2022-10-31T06:14:26;100016.69;;;17.89;100.00
56811;BME280;42691;47.234;27.494;2022-10-31T06:16:51;100012.22;;;18.02;100.00
56811;BME280;42691;47.234;27.494;2022-10-31T06:19:17;100016.78;;;18.11;100.00
56811;BME280;42691;47.234;27.494;2022-10-31T06:21:42;100011.06;;;18.18;100.00
56811;BME280;42691;47.234;27.494;2022-10-31T06:24:08;100011.34;;;18.26;100.00
56811;BME280;42691;47.234;27.494;2022-10-31T06:26:33;100011.63;;;18.34;100.00
56811;BME280;42691;47.234;27.494;2022-10-31T06:28:59;100012.22;;;18.37;100.00
56811;BME280;42691;47.234;27.494;2022-10-31T06:31:24;100015.72;;;18.49;100.00
56811;BME280;42691;47.234;27.494;2022-10-31T06:33:49;100016.72;;;18.59;100.00
56811;BME280;42691;47.234;27.494;2022-10-31T06:36:15;100022.41;;;18.66;100.00
56811;BME280;42691;47.234;27.494;2022-10-31T06:38:40;100023.00;;;18.69;100.00
56811;BME280;42691;47.234;27.494;2022-10-31T06:41:06;100021.81;;;18.73;100.00
56811;BME280;42691;47.234;27.494;2022-10-31T06:43:32;100022.28;;;18.79;100.00
56811;BME280;42691;47.234;27.494;2022-10-31T06:46:01;100019.66;;;18.79;100.00
56811;BME280;42691;47.234;27.494;2022-10-31T06:48:27;100025.41;;;18.84;100.00
56811;BME280;42691;47.234;27.494;2022-10-31T06:50:53;100030.44;;;18.87;100.00
56811;BME280;42691;47.234;27.494;2022-10-31T06:53:18;100030.19;;;18.90;100.00
56811;BME280;42691;47.234;27.494;2022-10-31T06:55:44;100027.22;;;18.94;100.00
56811;BME280;42691;47.234;27.494;2022-10-31T06:58:10;100023.53;;;18.97;100.00
56811;BME280;42691;47.234;27.494;2022-10-31T07:00:36;100035.16;;;19.05;100.00
56811;BME280;42691;47.234;27.494;2022-10-31T07:03:09;100026.41;;;19.05;100.00
56811;BME280;42691;47.234;27.494;2022-10-31T07:05:34;100037.66;;;19.07;100.00
56811;BME280;42691;47.234;27.494;2022-10-31T07:08:05;100035.16;;;19.05;100.00
56811;BME280;42691;47.234;27.494;2022-10-31T07:10:33;100035.50;;;19.12;100.00
56811;BME280;42691;47.234;27.494;2022-10-31T07:13:03;100043.31;;;19.14;100.00
56811;BME280;42691;47.234;27.494;2022-10-31T07:15:33;100040.53;;;19.15;100.00
56811;BME280;42691;47.234;27.494;2022-10-31T07:18:00;100022.34;;;19.01;100.00
56811;BME280;42691;47.234;27.494;2022-10-31T07:20:26;100043.53;;;19.11;100.00
56811;BME280;42691;47.234;27.494;2022-10-31T07:22:52;100039.72;;;19.15;100.00
56811;BME280;42691;47.234;27.494;2022-10-31T07:25:17;100035.88;;;19.19;100.00
56811;BME280;42691;47.234;27.494;2022-10-31T07:27:43;100046.53;;;19.17;100.00
56811;BME280;42691;47.234;27.494;2022-10-31T07:30:10;100039.81;;;19.13;100.00
56811;BME280;42691;47.234;27.494;2022-10-31T07:32:47;100049.88;;;19.19;100.00
56811;BME280;42691;47.234;27.494;2022-10-31T07:35:16;100045.09;;;19.13;100.00
56811;BME280;42691;47.234;27.494;2022-10-31T07:37:41;100047.50;;;19.16;100.00
56811;BME280;42691;47.234;27.494;2022-10-31T07:40:08;100051.28;;;18.90;100.00
56811;BME280;42691;47.234;27.494;2022-10-31T07:42:41;100055.03;;;18.98;100.00
56811;BME280;42691;47.234;27.494;2022-10-31T07:45:08;100048.06;;;18.86;100.00
56811;BME280;42691;47.234;27.494;2022-10-31T07:47:48;100062.59;;;19.03;100.00
56811;BME280;42691;47.234;27.494;2022-10-31T07:50:17;100065.59;;;19.10;100.00
56811;BME280;42691;47.234;27.494;2022-10-31T07:52:43;100059.38;;;19.11;100.00
56811;BME280;42691;47.234;27.494;2022-10-31T07:55:09;100063.56;;;19.13;100.00
56811;BME280;42691;47.234;27.494;2022-10-31T07:57:35;100068.94;;;19.23;100.00
56811;BME280;42691;47.234;27.494;2022-10-31T08:00:03;100079.38;;;19.24;100.00
56811;BME280;42691;47.234;27.494;2022-10-31T08:02:29;100066.44;;;19.21;100.00
56811;BME280;42691;47.234;27.494;2022-10-31T08:04:54;100073.16;;;19.25;100.00
56811;BME280;42691;47.234;27.494;2022-10-31T08:07:20;100070.78;;;19.33;100.00
56811;BME280;42691;47.234;27.494;2022-10-31T08:09:45;100073.78;;;19.40;100.00
56811;BME280;42691;47.234;27.494;2022-10-31T08:12:11;100069.22;;;19.42;100.00
56811;BME280;42691;47.234;27.494;2022-10-31T08:14:36;100069.06;;;19.32;100.00
56811;BME280;42691;47.234;27.494;2022-10-31T08:17:02;100069.31;;;19.29;100.00
56811;BME280;42691;47.234;27.494;2022-10-31T08:19:27;100074.81;;;19.26;100.00
56811;BME280;42691;47.234;27.494;2022-10-31T08:21:53;100073.28;;;19.24;100.00
56811;BME280;42691;47.234;27.494;2022-10-31T08:24:20;100082.25;;;19.32;100.00
56811;BME280;42691;47.234;27.494;2022-10-31T08:26:46;100091.03;;;19.33;100.00
56811;BME280;42691;47.234;27.494;2022-10-31T08:29:11;100088.28;;;19.34;100.00
56811;BME280;42691;47.234;27.494;2022-10-31T08:31:37;100086.13;;;19.40;100.00
56811;BME280;42691;47.234;27.494;2022-10-31T08:34:02;100083.97;;;19.45;100.00
56811;BME280;42691;47.234;27.494;2022-10-31T08:36:28;100079.41;;;19.47;100.00
56811;BME280;42691;47.234;27.494;2022-10-31T08:38:54;100077.72;;;19.46;100.00
56811;BME280;42691;47.234;27.494;2022-10-31T08:41:19;100082.63;;;19.50;100.00
56811;BME280;42691;47.234;27.494;2022-10-31T08:43:45;100082.63;;;19.50;100.00
56811;BME280;42691;47.234;27.494;2022-10-31T08:46:11;100080.34;;;19.46;100.00
56811;BME280;42691;47.234;27.494;2022-10-31T08:48:36;100084.91;;;19.44;100.00
56811;BME280;42691;47.234;27.494;2022-10-31T08:51:02;100085.41;;;19.49;100.00
56811;BME280;42691;47.234;27.494;2022-10-31T08:53:28;100088.53;;;19.54;100.00
56811;BME280;42691;47.234;27.494;2022-10-31T08:55:56;100084.31;;;19.51;100.00
56811;BME280;42691;47.234;27.494;2022-10-31T08:58:22;100090.22;;;19.55;100.00
56811;BME280;42691;47.234;27.494;2022-10-31T09:00:50;100093.19;;;19.50;100.00
56811;BME280;42691;47.234;27.494;2022-10-31T09:03:22;100096.66;;;19.51;100.00
56811;BME280;42691;47.234;27.494;2022-10-31T09:05:48;100050.97;;;19.17;100.00
56811;BME280;42691;47.234;27.494;2022-10-31T09:08:14;100092.25;;;19.40;100.00
56811;BME280;42691;47.234;27.494;2022-10-31T09:10:40;100106.50;;;19.49;100.00
56811;BME280;42691;47.234;27.494;2022-10-31T09:13:09;100107.00;;;19.54;100.00
56811;BME280;42691;47.234;27.494;2022-10-31T09:15:36;100108.38;;;19.13;100.00
56811;BME280;42691;47.234;27.494;2022-10-31T09:18:03;100112.47;;;19.17;100.00
56811;BME280;42691;47.234;27.494;2022-10-31T09:20:31;100109.13;;;19.26;100.00
56811;BME280;42691;47.234;27.494;2022-10-31T09:23:01;100113.91;;;19.21;100.00
56811;BME280;42691;47.234;27.494;2022-10-31T09:25:28;100114.28;;;19.28;100.00
56811;BME280;42691;47.234;27.494;2022-10-31T09:27:58;100116.16;;;19.03;100.00
56811;BME280;42691;47.234;27.494;2022-10-31T09:30:25;100099.22;;;18.95;100.00
56811;BME280;42691;47.234;27.494;2022-10-31T09:32:57;100105.88;;;19.12;100.00
56811;BME280;42691;47.234;27.494;2022-10-31T09:35:24;100098.94;;;19.22;100.00
56811;BME280;42691;47.234;27.494;2022-10-31T09:38:00;100111.50;;;19.29;100.00
56811;BME280;42691;47.234;27.494;2022-10-31T09:40:34;100107.59;;;19.35;100.00
56811;BME280;42691;47.234;27.494;2022-10-31T09:43:25;100105.31;;;19.42;100.00
56811;BME280;42691;47.234;27.494;2022-10-31T09:46:04;100105.06;;;19.45;100.00
56811;BME280;42691;47.234;27.494;2022-10-31T09:51:21;100098.13;;;19.44;100.00
56811;BME280;42691;47.234;27.494;2022-10-31T09:54:09;100105.06;;;19.45;100.00
56811;BME280;42691;47.234;27.494;2022-10-31T09:56:37;100097.28;;;19.43;100.00
56811;BME280;42691;47.234;27.494;2022-10-31T09:59:05;100111.06;;;19.47;100.00
56811;BME280;42691;47.234;27.494;2022-10-31T10:01:50;100105.53;;;19.50;100.00
56811;BME280;42691;47.234;27.494;2022-10-31T10:07:27;100107.25;;;19.62;100.00
56811;BME280;42691;47.234;27.494;2022-10-31T10:09:56;100098.97;;;19.66;100.00
56811;BME280;42691;47.234;27.494;2022-10-31T10:23:19;100099.09;;;19.76;100.00
56811;BME280;42691;47.234;27.494;2022-10-31T10:25:53;100115.53;;;19.80;100.00
56811;BME280;42691;47.234;27.494;2022-10-31T10:28:35;100111.31;;;19.66;100.00
56811;BME280;42691;47.234;27.494;2022-10-31T10:31:23;100109.63;;;19.65;100.00
56811;BME280;42691;47.234;27.494;2022-10-31T10:34:25;100108.91;;;19.63;100.00
56811;BME280;42691;47.234;27.494;2022-10-31T10:37:05;100090.66;;;19.49;100.00
56811;BME280;42691;47.234;27.494;2022-10-31T10:39:43;100107.00;;;19.65;100.00
56811;BME280;42691;47.234;27.494;2022-10-31T10:42:12;100103.06;;;19.71;100.00
56811;BME280;42691;47.234;27.494;2022-10-31T10:44:57;100114.94;;;19.76;100.00
56811;BME280;42691;47.234;27.494;2022-10-31T10:47:48;100102.94;;;19.72;100.00
56811;BME280;42691;47.234;27.494;2022-10-31T10:50:32;100104.38;;;19.76;100.00
56811;BME280;42691;47.234;27.494;2022-10-31T10:55:50;100095.72;;;19.74;100.00
56811;BME280;42691;47.234;27.494;2022-10-31T10:58:18;100091.88;;;19.67;100.00
56811;BME280;42691;47.234;27.494;2022-10-31T11:00:45;100081.94;;;19.71;100.00
56811;BME280;42691;47.234;27.494;2022-10-31T11:03:13;100094.91;;;19.74;100.00
56811;BME280;42691;47.234;27.494;2022-10-31T11:05:42;100081.06;;;19.81;100.00
56811;BME280;42691;47.234;27.494;2022-10-31T11:08:10;100057.22;;;19.60;100.00
56811;BME280;42691;47.234;27.494;2022-10-31T11:10:36;100088.03;;;19.82;100.00
56811;BME280;42691;47.234;27.494;2022-10-31T11:15:37;100081.91;;;19.82;100.00
56811;BME280;42691;47.234;27.494;2022-10-31T11:18:04;100083.25;;;19.76;100.00
56811;BME280;42691;47.234;27.494;2022-10-31T11:20:33;100074.97;;;19.81;100.00
56811;BME280;42691;47.234;27.494;2022-10-31T11:23:22;100079.41;;;19.80;100.00
56811;BME280;42691;47.234;27.494;2022-10-31T11:25:55;100076.25;;;19.86;100.00
56811;BME280;42691;47.234;27.494;2022-10-31T11:28:21;100076.47;;;19.94;100.00
56811;BME280;42691;47.234;27.494;2022-10-31T11:33:18;100059.81;;;19.94;100.00
56811;BME280;42691;47.234;27.494;2022-10-31T11:35:44;100064.50;;;19.90;100.00
56811;BME280;42691;47.234;27.494;2022-10-31T11:38:18;100063.75;;;19.99;100.00
56811;BME280;42691;47.234;27.494;2022-10-31T11:41:08;100070.13;;;19.97;100.00
56811;BME280;42691;47.234;27.494;2022-10-31T11:43:35;100065.16;;;20.04;100.00
56811;BME280;42691;47.234;27.494;2022-10-31T11:46:09;100046.97;;;19.89;100.00
56811;BME280;42691;47.234;27.494;2022-10-31T11:48:36;100048.41;;;19.93;100.00
56811;BME280;42691;47.234;27.494;2022-10-31T11:51:02;100061.59;;;19.93;100.00
56811;BME280;42691;47.234;27.494;2022-10-31T11:53:32;100065.66;;;19.97;100.00
56811;BME280;42691;47.234;27.494;2022-10-31T11:56:14;100059.28;;;20.00;100.00
56811;BME280;42691;47.234;27.494;2022-10-31T11:58:41;100069.47;;;20.05;100.00
56811;BME280;42691;47.234;27.494;2022-10-31T12:01:24;100065.28;;;20.02;100.00
56811;BME280;42691;47.234;27.494;2022-10-31T12:04:07;100068.06;;;20.01;100.00
56811;BME280;42691;47.234;27.494;2022-10-31T12:06:38;100067.84;;;19.92;100.00
56811;BME280;42691;47.234;27.494;2022-10-31T12:12:05;100074.75;;;20.05;100.00
56811;BME280;42691;47.234;27.494;2022-10-31T12:17:44;100076.44;;;20.06;100.00
56811;BME280;42691;47.234;27.494;2022-10-31T12:33:49;100076.44;;;20.17;100.00
56811;BME280;42691;47.234;27.494;2022-10-31T12:36:39;100070.44;;;20.15;100.00
56811;BME280;42691;47.234;27.494;2022-10-31T12:44:48;100075.22;;;20.21;100.00
56811;BME280;42691;47.234;27.494;2022-10-31T12:55:24;100075.53;;;19.95;100.00
56811;BME280;42691;47.234;27.494;2022-10-31T12:58:00;100086.09;;;19.95;100.00
56811;BME280;42691;47.234;27.494;2022-10-31T13:00:27;100085.72;;;20.00;100.00
56811;BME280;42691;47.234;27.494;2022-10-31T13:02:58;100084.16;;;20.09;100.00
56811;BME280;42691;47.234;27.494;2022-10-31T13:05:48;100078.88;;;20.09;100.00
56811;BME280;42691;47.234;27.494;2022-10-31T13:08:20;100083.19;;;20.10;100.00
56811;BME280;42691;47.234;27.494;2022-10-31T13:11:10;100064.00;;;19.96;100.00
56811;BME280;42691;47.234;27.494;2022-10-31T13:16:19;100084.84;;;20.11;100.00
56811;BME280;42691;47.234;27.494;2022-10-31T13:19:03;100091.69;;;20.13;100.00
56811;BME280;42691;47.234;27.494;2022-10-31T13:24:17;100081.91;;;20.25;100.00
56811;BME280;42691;47.234;27.494;2022-10-31T13:26:51;100082.44;;;20.19;100.00
56811;BME280;42691;47.234;27.494;2022-10-31T13:29:25;100089.25;;;20.21;100.00
56811;BME280;42691;47.234;27.494;2022-10-31T13:31:53;100080.16;;;20.14;100.00
56811;BME280;42691;47.234;27.494;2022-10-31T13:34:33;100085.31;;;20.16;100.00
56811;BME280;42691;47.234;27.494;2022-10-31T13:40:24;100082.44;;;20.19;100.00
56811;BME280;42691;47.234;27.494;2022-10-31T13:43:02;100081.22;;;20.23;100.00
56811;BME280;42691;47.234;27.494;2022-10-31T13:45:30;100081.22;;;20.23;100.00
56811;BME280;42691;47.234;27.494;2022-10-31T13:50:40;100087.91;;;20.27;100.00
56811;BME280;42691;47.234;27.494;2022-10-31T13:53:18;100084.31;;;20.28;100.00
56811;BME280;42691;47.234;27.494;2022-10-31T13:55:46;100089.09;;;20.34;100.00
56811;BME280;42691;47.234;27.494;2022-10-31T14:01:19;100083.47;;;20.27;100.00
56811;BME280;42691;47.234;27.494;2022-10-31T14:03:45;100087.41;;;20.33;100.00
56811;BME280;42691;47.234;27.494;2022-10-31T14:06:11;100093.53;;;20.34;100.00
56811;BME280;42691;47.234;27.494;2022-10-31T14:08:49;100083.47;;;20.27;100.00
56811;BME280;42691;47.234;27.494;2022-10-31T14:11:24;100099.91;;;20.31;100.00
56811;BME280;42691;47.234;27.494;2022-10-31T14:13:54;100095.47;;;20.32;100.00
56811;BME280;42691;47.234;27.494;2022-10-31T14:18:56;100093.78;;;20.30;100.00
56811;BME280;42691;47.234;27.494;2022-10-31T14:23:49;100088.13;;;20.35;100.00
56811;BME280;42691;47.234;27.494;2022-10-31T14:28:44;100091.72;;;20.34;100.00
56811;BME280;42691;47.234;27.494;2022-10-31T14:34:23;100091.00;;;20.32;100.00
56811;BME280;42691;47.234;27.494;2022-10-31T14:37:17;100084.06;;;20.31;100.00